Time;durP1;ratioP1;P1;durP2;ratioP2;P2;SDS_P1;SDS_P2;PMS_P1;PMS_P2;Temp;Humidity;BMP_temperature;BMP_pressure;BME280_temperature;BME280_humidity;BME280_pressure;Samples;Min_cycle;Max_cycle;Signal;HPM_P1;HPM_P2
2022/10/19 00:01:07;;;;;;;41.15;28.77;;;;;;;13.89;100.00;101404.50;5007295;28;20034;-86
2022/10/19 00:03:34;;;;;;;40.70;29.20;;;;;;;13.93;100.00;101396.22;5007244;28;20056;-85
2022/10/19 00:06:08;;;;;;;31.65;24.70;;;;;;;14.04;100.00;101399.63;4991428;28;20460;-85
2022/10/19 00:08:34;;;;;;;35.30;25.33;;;;;;;14.19;100.00;101393.75;4985055;28;20041;-86
2022/10/19 00:11:00;;;;;;;34.17;24.40;;;;;;;14.13;100.00;101394.38;4992064;28;20099;-86
2022/10/19 00:13:26;;;;;;;34.67;24.70;;;;;;;14.07;100.00;101392.31;5007281;28;20033;-86
2022/10/19 00:15:51;;;;;;;41.28;27.10;;;;;;;13.91;100.00;101397.34;5009430;28;20109;-86
2022/10/19 00:18:17;;;;;;;39.50;28.92;;;;;;;13.78;100.00;101396.81;5003780;28;20195;-86
2022/10/19 00:20:42;;;;;;;43.70;29.45;;;;;;;13.71;100.00;101390.50;5009809;28;20032;-86
2022/10/19 00:23:07;;;;;;;47.75;29.38;;;;;;;13.64;100.00;101389.44;4988329;28;20137;-86
2022/10/19 00:25:33;;;;;;;40.80;29.50;;;;;;;13.59;100.00;101393.31;5009954;28;20086;-86
2022/10/19 00:27:59;;;;;;;41.67;28.10;;;;;;;13.54;100.00;101392.91;4986522;28;20151;-86
2022/10/19 00:30:24;;;;;;;39.40;27.35;;;;;;;13.55;100.00;101388.50;5008683;28;20477;-86
2022/10/19 00:32:50;;;;;;;38.03;26.67;;;;;;;13.48;100.00;101390.84;5003600;28;20032;-86
2022/10/19 00:35:15;;;;;;;37.03;25.88;;;;;;;13.43;100.00;101392.22;4991524;28;20083;-85
2022/10/19 00:37:41;;;;;;;33.92;23.02;;;;;;;13.65;100.00;101383.25;5005782;28;20430;-86
2022/10/19 00:40:07;;;;;;;34.53;24.85;;;;;;;13.82;100.00;101377.25;5008437;28;20080;-86
2022/10/19 00:42:32;;;;;;;31.42;24.33;;;;;;;13.75;100.00;101376.16;4990679;28;20025;-86
2022/10/19 00:45:02;;;;;;;33.28;25.40;;;;;;;13.66;100.00;101383.09;5008907;28;20037;-86
2022/10/19 00:47:28;;;;;;;30.08;21.75;;;;;;;13.89;100.00;101380.94;4998382;28;20029;-87
2022/10/19 00:49:55;;;;;;;27.02;21.77;;;;;;;14.09;100.00;101379.91;5005708;28;20040;-87
2022/10/19 00:52:23;;;;;;;29.80;20.70;;;;;;;14.14;100.00;101372.44;4989823;28;20033;-87
2022/10/19 00:54:50;;;;;;;29.08;21.67;;;;;;;14.20;100.00;101378.84;5006690;28;20368;-86
2022/10/19 00:57:16;;;;;;;28.98;21.10;;;;;;;14.20;100.00;101377.06;4990590;28;20046;-87
2022/10/19 00:59:43;;;;;;;29.27;21.52;;;;;;;14.13;100.00;101377.81;5007091;28;20217;-87
2022/10/19 01:02:09;;;;;;;36.70;24.20;;;;;;;14.04;100.00;101368.19;5004347;28;20038;-87
2022/10/19 01:04:39;;;;;;;38.08;26.55;;;;;;;13.93;100.00;101364.78;5004230;28;20030;-87
2022/10/19 01:07:06;;;;;;;37.42;27.35;;;;;;;13.83;100.00;101363.16;5012794;28;20034;-87
2022/10/19 01:09:32;;;;;;;40.03;26.45;;;;;;;13.74;100.00;101356.16;5014033;28;20138;-87
2022/10/19 01:12:30;;;;;;;36.95;25.45;;;;;;;13.76;100.00;101355.06;5029953;28;20038;-86
2022/10/19 01:15:23;;;;;;;31.50;22.23;;;;;;;13.85;100.00;101359.44;4973599;28;20386;-87
2022/10/19 01:18:06;;;;;;;30.13;21.13;;;;;;;13.97;100.00;101354.03;4991741;28;20037;-88
2022/10/19 01:21:07;;;;;;;24.27;18.33;;;;;;;14.19;100.00;101351.81;5009422;28;20405;-87
2022/10/19 01:24:05;;;;;;;23.27;18.73;;;;;;;14.31;100.00;101341.13;4979088;28;20247;-88
2022/10/19 01:26:55;;;;;;;25.67;18.00;;;;;;;14.43;100.00;101340.81;4988186;28;20025;-87
2022/10/19 01:29:49;;;;;;;21.80;17.20;;;;;;;14.45;100.00;101338.06;4972211;28;20496;-88
2022/10/19 01:32:22;;;;;;;22.13;17.75;;;;;;;14.52;100.00;101339.13;4990591;28;20033;-87
2022/10/19 01:34:54;;;;;;;20.92;16.60;;;;;;;14.57;100.00;101337.69;5002709;28;20133;-87
2022/10/19 01:37:32;;;;;;;22.02;17.63;;;;;;;14.51;100.00;101338.28;4992557;28;20026;-87
2022/10/19 01:40:11;;;;;;;22.15;17.67;;;;;;;14.53;100.00;101341.59;5005012;28;20497;-87
2022/10/19 01:42:48;;;;;;;24.83;18.15;;;;;;;14.48;100.00;101338.59;5006249;28;20030;-88
2022/10/19 01:45:24;;;;;;;24.33;18.35;;;;;;;14.50;100.00;101339.25;4988897;28;20502;-86
2022/10/19 01:48:12;;;;;;;25.00;17.98;;;;;;;14.52;100.00;101339.13;4986781;28;20067;-87
2022/10/19 01:50:47;;;;;;;23.27;18.30;;;;;;;14.55;100.00;101344.06;4988302;28;20033;-87
2022/10/19 01:53:13;;;;;;;22.20;17.08;;;;;;;14.59;100.00;101340.16;5005233;28;20041;-87
2022/10/19 01:55:42;;;;;;;24.67;18.45;;;;;;;14.57;100.00;101336.88;4992092;28;20113;-87
2022/10/19 01:58:12;;;;;;;23.27;17.25;;;;;;;14.49;100.00;101331.53;5010985;28;20030;-87
2022/10/19 02:00:41;;;;;;;23.17;18.52;;;;;;;14.47;100.00;101336.09;5011210;28;20112;-87
2022/10/19 02:03:08;;;;;;;22.77;17.50;;;;;;;14.47;100.00;101333.50;4993277;28;20037;-86
2022/10/19 02:05:37;;;;;;;23.90;16.75;;;;;;;14.47;100.00;101330.88;5003887;28;20120;-86
2022/10/19 02:08:09;;;;;;;30.23;18.35;;;;;;;14.48;100.00;101328.09;5008406;28;20142;-87
2022/10/19 02:10:37;;;;;;;24.08;17.80;;;;;;;14.44;100.00;101329.38;4991009;28;20033;-86
2022/10/19 02:13:03;;;;;;;20.88;17.20;;;;;;;14.43;100.00;101329.50;5011109;28;20493;-87
2022/10/19 02:15:33;;;;;;;29.15;17.83;;;;;;;14.39;100.00;101328.13;5010868;28;20034;-86
2022/10/19 02:18:00;;;;;;;21.13;17.25;;;;;;;14.37;100.00;101328.28;4992562;28;20036;-86
2022/10/19 02:20:27;;;;;;;22.52;17.83;;;;;;;14.37;100.00;101330.06;4989299;28;20061;-88
2022/10/19 02:22:53;;;;;;;27.65;16.85;;;;;;;14.32;100.00;101327.06;5010720;28;20068;-87
2022/10/19 02:25:18;;;;;;;24.10;17.02;;;;;;;14.32;100.00;101316.56;5008682;28;20037;-88
2022/10/19 02:27:44;;;;;;;21.90;16.38;;;;;;;14.35;100.00;101318.91;4994118;28;20025;-87
2022/10/19 02:30:13;;;;;;;20.00;15.68;;;;;;;14.41;100.00;101319.16;4992061;28;20125;-87
2022/10/19 02:32:39;;;;;;;23.58;16.70;;;;;;;14.34;100.00;101317.25;5010629;28;20034;-87
2022/10/19 02:35:05;;;;;;;19.27;15.75;;;;;;;14.29;100.00;101317.69;5009183;28;20403;-87
2022/10/19 02:37:31;;;;;;;26.15;17.15;;;;;;;14.23;100.00;101311.25;5011980;28;20421;-87
2022/10/19 02:39:56;;;;;;;22.52;16.58;;;;;;;14.20;100.00;101314.16;5005629;28;20072;-87
2022/10/19 02:42:32;;;;;;;24.20;18.23;;;;;;;14.14;100.00;101312.16;4992307;28;20501;-88
2022/10/19 02:45:05;;;;;;;24.38;18.38;;;;;;;14.10;100.00;101316.03;4992368;28;20099;-87
2022/10/19 02:47:36;;;;;;;25.77;17.67;;;;;;;14.07;100.00;101310.25;5009943;28;20029;-88
2022/10/19 02:50:06;;;;;;;21.30;16.52;;;;;;;14.03;100.00;101314.97;4979833;28;20042;-87
2022/10/19 02:52:31;;;;;;;21.35;17.52;;;;;;;14.00;100.00;101314.44;4992037;28;20022;-88
2022/10/19 02:54:57;;;;;;;21.88;17.25;;;;;;;14.01;100.00;101303.81;4990815;28;20026;-88
2022/10/19 02:57:34;;;;;;;;;;;;;;;;;;;;;
2022/10/19 03:00:00;;;;;;;25.45;16.48;;;;;;;14.03;100.00;101301.88;5007503;28;20037;-87
2022/10/19 03:02:26;;;;;;;23.83;16.13;;;;;;;14.09;100.00;101300.47;5008906;28;20040;-87
2022/10/19 03:04:51;;;;;;;21.98;15.85;;;;;;;14.11;100.00;101301.97;5005810;28;20369;-88
2022/10/19 03:07:19;;;;;;;20.00;15.68;;;;;;;14.12;100.00;101314.09;4977273;28;20026;-88
2022/10/19 03:09:44;;;;;;;21.98;16.13;;;;;;;13.97;100.00;101302.44;5004170;28;20426;-88
2022/10/19 03:12:11;;;;;;;22.80;16.85;;;;;;;13.85;100.00;101312.28;5011257;28;20033;-88
2022/10/19 03:14:37;;;;;;;22.40;15.68;;;;;;;13.95;100.00;101305.22;4992562;28;20030;-89
2022/10/19 03:17:03;;;;;;;18.42;15.43;;;;;;;14.04;100.00;101302.69;5009975;28;20041;-88
2022/10/19 03:19:28;;;;;;;18.85;15.30;;;;;;;14.08;100.00;101301.44;5008457;28;20040;-88
2022/10/19 03:21:54;;;;;;;25.55;17.13;;;;;;;14.03;100.00;101307.09;5007248;28;20117;-88
2022/10/19 03:24:19;;;;;;;28.90;19.75;;;;;;;13.90;100.00;101301.38;4991958;28;20064;-87
2022/10/19 03:26:45;;;;;;;28.63;18.15;;;;;;;13.77;100.00;101306.13;5009754;28;20117;-88
2022/10/19 03:29:10;;;;;;;24.98;18.45;;;;;;;13.64;100.00;101303.03;5009447;28;20435;-87
2022/10/19 03:31:35;;;;;;;22.42;16.88;;;;;;;13.57;100.00;101308.84;5008564;28;20037;-87
2022/10/19 03:34:01;;;;;;;26.70;17.70;;;;;;;13.72;100.00;101303.94;5003275;28;20021;-86
2022/10/19 03:36:29;;;;;;;20.85;15.68;;;;;;;13.83;100.00;101302.94;5031864;28;20034;-87
2022/10/19 03:39:00;;;;;;;20.17;15.32;;;;;;;13.88;100.00;101303.31;5025764;28;20026;-87
2022/10/19 03:41:30;;;;;;;20.73;15.32;;;;;;;13.93;100.00;101295.84;4989467;28;20034;-88
2022/10/19 03:43:55;;;;;;;19.40;14.30;;;;;;;13.96;100.00;101306.03;4990176;28;20033;-88
2022/10/19 03:46:21;;;;;;;19.35;14.77;;;;;;;13.99;100.00;101303.13;5005079;28;20080;-87
2022/10/19 03:48:47;;;;;;;17.17;14.07;;;;;;;14.01;100.00;101303.81;5007530;28;20084;-88
2022/10/19 03:51:15;;;;;;;19.00;13.90;;;;;;;14.03;100.00;101296.63;5009067;28;20457;-88
2022/10/19 03:53:41;;;;;;;19.73;14.68;;;;;;;14.02;100.00;101297.59;5007914;28;20037;-89
2022/10/19 03:56:12;;;;;;;17.42;13.45;;;;;;;14.04;100.00;101295.66;4984646;28;20177;-87
2022/10/19 03:58:39;;;;;;;15.98;13.10;;;;;;;14.18;100.00;101289.06;4983526;28;20076;-88
2022/10/19 04:01:13;;;;;;;20.30;14.68;;;;;;;14.18;100.00;101295.13;5009586;28;20034;-88
2022/10/19 04:03:39;;;;;;;25.97;17.70;;;;;;;14.07;100.00;101299.78;4989990;28;20037;-88
2022/10/19 04:09:12;;;;;;;17.42;13.73;;;;;;;13.95;100.00;101301.78;4963570;28;20129;-63
2022/10/19 04:11:38;;;;;;;19.83;13.88;;;;;;;13.99;100.00;101302.31;4959452;28;20094;-66
2022/10/19 04:14:04;;;;;;;19.92;13.95;;;;;;;14.01;100.00;101292.50;4970106;28;20058;-64
2022/10/19 04:16:30;;;;;;;18.77;14.15;;;;;;;14.00;100.00;101289.06;4961087;28;20057;-63
2022/10/19 04:18:56;;;;;;;16.70;13.45;;;;;;;14.02;100.00;101289.75;4949282;28;20390;-65
2022/10/19 04:21:24;;;;;;;16.83;13.65;;;;;;;14.04;100.00;101293.03;4955356;28;20039;-67
2022/10/19 04:23:52;;;;;;;18.08;13.20;;;;;;;14.04;100.00;101300.91;4955260;28;20126;-63
2022/10/19 04:26:18;;;;;;;25.17;13.48;;;;;;;14.02;100.00;101287.13;4960662;28;20393;-65
2022/10/19 04:28:43;;;;;;;14.00;12.27;;;;;;;14.03;100.00;101285.31;4949753;28;20027;-64
2022/10/19 04:31:09;;;;;;;17.92;13.57;;;;;;;14.02;100.00;101287.13;4949185;28;20042;-65
2022/10/19 04:33:35;;;;;;;22.05;12.20;;;;;;;14.01;100.00;101282.84;4953885;28;20022;-64
2022/10/19 04:36:03;;;;;;;14.73;12.00;;;;;;;14.01;100.00;101282.03;4969827;28;20457;-66
2022/10/19 04:38:28;;;;;;;16.08;12.32;;;;;;;14.05;100.00;101278.97;4958459;28;20050;-64
2022/10/19 04:40:59;;;;;;;18.33;13.25;;;;;;;14.05;100.00;101288.63;4969587;28;20065;-63
2022/10/19 04:43:25;;;;;;;15.15;12.48;;;;;;;14.01;100.00;101282.84;4968421;28;20840;-65
2022/10/19 04:45:50;;;;;;;17.60;13.75;;;;;;;14.03;100.00;101283.53;4968871;28;20110;-64
2022/10/19 04:48:16;;;;;;;18.08;14.18;;;;;;;14.04;100.00;101284.34;4962654;28;20046;-64
2022/10/19 04:50:42;;;;;;;23.33;14.70;;;;;;;13.98;100.00;101288.38;4950468;28;20023;-64
2022/10/19 04:53:07;;;;;;;18.35;13.70;;;;;;;13.95;100.00;101288.69;4952203;28;20035;-64
2022/10/19 04:55:32;;;;;;;16.73;12.98;;;;;;;13.92;100.00;101284.56;4967362;28;20513;-62
2022/10/19 04:57:58;;;;;;;17.00;12.35;;;;;;;13.92;100.00;101288.97;4968281;28;20039;-64
2022/10/19 05:00:23;;;;;;;19.45;13.18;;;;;;;13.88;100.00;101288.44;4966038;28;20037;-62
2022/10/19 05:02:49;;;;;;;17.08;12.88;;;;;;;13.89;100.00;101291.88;4948572;28;20027;-65
2022/10/19 05:05:14;;;;;;;16.63;13.05;;;;;;;13.84;100.00;101286.25;4949943;28;20035;-64
2022/10/19 05:07:40;;;;;;;16.75;13.38;;;;;;;13.83;100.00;101284.59;4956887;28;20592;-62
2022/10/19 05:10:07;;;;;;;15.82;13.10;;;;;;;13.86;100.00;101289.53;4963224;28;20026;-63
2022/10/19 05:12:36;;;;;;;20.60;13.13;;;;;;;13.90;100.00;101288.28;4969078;28;20062;-63
2022/10/19 05:15:02;;;;;;;14.77;12.48;;;;;;;13.88;100.00;101293.66;4963618;28;20105;-66
2022/10/19 05:17:31;;;;;;;16.05;11.57;;;;;;;13.92;100.00;101288.97;4950032;28;20074;-64
2022/10/19 05:19:56;;;;;;;15.90;12.93;;;;;;;13.95;100.00;101283.44;4960253;28;20395;-64
2022/10/19 05:22:22;;;;;;;15.63;11.40;;;;;;;14.00;100.00;101290.84;4960168;28;20030;-62
2022/10/19 05:24:47;;;;;;;17.17;11.98;;;;;;;13.97;100.00;101288.53;4949423;28;20483;-63
2022/10/19 05:27:13;;;;;;;19.00;11.93;;;;;;;13.95;100.00;101289.50;4949489;29;20035;-62
2022/10/19 05:29:38;;;;;;;16.42;12.43;;;;;;;13.94;100.00;101281.78;4949115;28;20039;-64
2022/10/19 05:32:04;;;;;;;13.27;11.02;;;;;;;13.92;100.00;101281.09;4949985;28;20109;-65
2022/10/19 05:34:29;;;;;;;18.13;12.50;;;;;;;13.86;100.00;101279.88;4949501;28;20348;-62
2022/10/19 05:36:55;;;;;;;16.92;12.20;;;;;;;13.84;100.00;101283.63;4950085;28;20031;-62
2022/10/19 05:39:22;;;;;;;18.40;12.73;;;;;;;13.82;100.00;101277.72;4956179;28;20077;-64
2022/10/19 05:41:47;;;;;;;15.52;11.60;;;;;;;13.81;100.00;101287.34;4968325;28;20118;-62
2022/10/19 05:44:16;;;;;;;21.25;12.57;;;;;;;13.85;100.00;101283.47;4968673;28;20113;-62
2022/10/19 05:46:41;;;;;;;17.80;11.80;;;;;;;13.89;100.00;101291.88;4956678;28;20462;-63
2022/10/19 05:49:07;;;;;;;15.88;12.48;;;;;;;13.95;100.00;101286.06;4949584;28;20147;-61
2022/10/19 05:51:32;;;;;;;17.73;11.35;;;;;;;13.99;100.00;101287.41;4960676;28;20106;-61
2022/10/19 05:53:58;;;;;;;16.65;11.68;;;;;;;13.97;100.00;101286.72;4968725;28;20023;-61
2022/10/19 05:56:26;;;;;;;14.75;11.00;;;;;;;13.96;100.00;101282.47;4961059;28;20037;-62
2022/10/19 05:58:54;;;;;;;13.00;10.68;;;;;;;13.98;100.00;101284.94;4968627;28;20146;-62
2022/10/19 06:01:20;;;;;;;15.23;10.52;;;;;;;13.99;100.00;101282.16;4967626;28;20118;-62
2022/10/19 06:03:46;;;;;;;15.43;11.75;;;;;;;14.03;100.00;101283.53;4965747;28;20126;-62
2022/10/19 06:06:12;;;;;;;14.32;11.07;;;;;;;14.04;100.00;101285.19;4957904;28;20050;-62
2022/10/19 06:08:38;;;;;;;13.38;10.75;;;;;;;14.05;100.00;101291.25;4948520;28;20055;-61
2022/10/19 06:11:13;;;;;;;13.90;10.93;;;;;;;14.10;100.00;101291.63;4951956;28;20023;-63
2022/10/19 06:13:40;;;;;;;16.70;9.95;;;;;;;14.13;100.00;101294.78;4949144;28;20447;-62
2022/10/19 06:16:07;;;;;;;13.55;10.82;;;;;;;14.13;100.00;101292.16;4948503;28;20046;-62
2022/10/19 06:18:33;;;;;;;13.23;10.10;;;;;;;14.16;100.00;101302.34;4952660;28;20050;-63
2022/10/19 06:21:04;;;;;;;17.20;11.13;;;;;;;14.18;100.00;101305.63;4966696;28;20057;-62
2022/10/19 06:23:31;;;;;;;15.60;11.35;;;;;;;14.20;100.00;101303.69;4952302;28;20473;-62
2022/10/19 06:25:56;;;;;;;11.45;9.82;;;;;;;14.24;100.00;101304.22;4950710;28;20031;-61
2022/10/19 06:28:22;;;;;;;15.35;10.95;;;;;;;14.21;100.00;101310.56;4968647;28;20038;-65
2022/10/19 06:30:47;;;;;;;14.48;10.32;;;;;;;14.25;100.00;101311.94;4966516;28;20170;-62
2022/10/19 06:33:13;;;;;;;17.30;10.75;;;;;;;14.29;100.00;101312.44;4967477;28;20710;-63
2022/10/19 06:35:41;;;;;;;16.80;10.40;;;;;;;14.38;100.00;101310.75;4949297;28;20027;-63
2022/10/19 06:38:07;;;;;;;11.95;9.90;;;;;;;14.46;100.00;101318.72;4965108;28;20101;-64
2022/10/19 06:40:33;;;;;;;13.77;10.07;;;;;;;14.46;100.00;101316.94;4953464;28;20456;-63
2022/10/19 06:42:59;;;;;;;18.13;9.68;;;;;;;14.55;100.00;101320.47;4957159;28;20038;-64
2022/10/19 06:45:24;;;;;;;12.70;9.07;;;;;;;14.66;100.00;101320.22;4958104;28;20379;-64
2022/10/19 06:47:50;;;;;;;13.35;9.15;;;;;;;14.71;100.00;101317.13;4952706;28;20081;-65
2022/10/19 06:50:15;;;;;;;16.52;9.13;;;;;;;14.73;100.00;101316.00;4961501;28;20049;-65
2022/10/19 06:52:41;;;;;;;15.93;10.25;;;;;;;14.78;100.00;101313.75;4961405;28;20020;-64
2022/10/19 06:55:07;;;;;;;12.07;10.10;;;;;;;14.85;100.00;101314.81;4952486;28;20175;-64
2022/10/19 06:57:33;;;;;;;14.43;9.27;;;;;;;14.88;100.00;101313.69;4958353;28;20138;-64
2022/10/19 06:59:58;;;;;;;10.95;9.60;;;;;;;14.91;100.00;101322.09;4956309;28;20167;-65
2022/10/19 07:02:24;;;;;;;17.05;10.10;;;;;;;15.01;100.00;101321.19;4968308;28;20038;-64
2022/10/19 07:04:49;;;;;;;12.40;9.40;;;;;;;15.06;100.00;101321.53;4964268;28;20112;-66
2022/10/19 07:07:14;;;;;;;14.57;9.82;;;;;;;15.10;100.00;101320.25;4955307;28;20047;-63
2022/10/19 07:09:40;;;;;;;12.60;8.20;;;;;;;15.18;100.00;101328.16;4963722;28;20031;-66
2022/10/19 07:12:05;;;;;;;13.73;9.18;;;;;;;15.22;100.00;101326.88;4969129;28;20026;-66
2022/10/19 07:14:37;;;;;;;14.48;8.52;;;;;;;15.28;100.00;101318.41;4970537;28;20161;-64
2022/10/19 07:17:03;;;;;;;13.13;8.18;;;;;;;15.32;100.00;101317.13;4970938;28;20034;-63
2022/10/19 07:19:29;;;;;;;13.18;9.30;;;;;;;15.37;100.00;101320.09;4962118;28;20031;-65
2022/10/19 07:21:54;;;;;;;10.18;8.38;;;;;;;15.51;100.00;101324.78;4957184;28;20550;-65
2022/10/19 07:24:20;;;;;;;11.27;8.20;;;;;;;15.62;100.00;101328.97;4964766;28;20394;-64
2022/10/19 07:26:45;;;;;;;14.43;8.48;;;;;;;15.71;100.00;101317.50;4968439;28;20031;-65
2022/10/19 07:29:11;;;;;;;11.40;8.23;;;;;;;15.74;100.00;101330.34;4964283;28;20027;-64
2022/10/19 07:31:37;;;;;;;9.02;8.05;;;;;;;15.87;100.00;101324.66;4952363;28;20097;-63
2022/10/19 07:34:03;;;;;;;8.75;7.68;;;;;;;15.87;100.00;101330.72;4957861;28;20505;-64
2022/10/19 07:36:31;;;;;;;10.95;8.20;;;;;;;15.91;100.00;101328.63;4960624;28;20023;-62
2022/10/19 07:38:56;;;;;;;8.93;7.68;;;;;;;16.05;100.00;101325.38;4952143;28;20432;-65
2022/10/19 07:41:24;;;;;;;9.52;7.40;;;;;;;16.16;99.77;101332.97;4952045;28;20061;-64
2022/10/19 07:43:51;;;;;;;9.60;7.57;;;;;;;16.25;99.50;101326.75;4951793;28;20051;-65
2022/10/19 07:46:20;;;;;;;11.85;8.13;;;;;;;16.34;98.52;101324.13;4953677;28;20478;-64
2022/10/19 07:48:46;;;;;;;10.98;8.15;;;;;;;16.44;98.17;101330.91;4971131;28;20135;-63
2022/10/19 07:51:13;;;;;;;10.13;7.55;;;;;;;16.50;98.05;101325.00;4968822;28;20121;-66
2022/10/19 07:53:39;;;;;;;8.88;7.05;;;;;;;16.62;96.61;101328.13;4957550;28;20114;-65
2022/10/19 07:56:09;;;;;;;11.05;7.03;;;;;;;16.71;95.97;101324.53;4956358;28;20083;-65
2022/10/19 07:58:36;;;;;;;10.57;7.30;;;;;;;16.65;96.63;101327.81;4957340;28;20446;-65
2022/10/19 08:01:15;;;;;;;14.40;6.93;;;;;;;16.65;96.17;101322.56;4965182;28;20058;-65
2022/10/19 08:03:41;;;;;;;13.88;8.02;;;;;;;16.98;93.54;101322.59;4965860;28;20038;-65
2022/10/19 08:06:11;;;;;;;10.73;7.93;;;;;;;17.06;93.50;101319.91;4956844;28;20137;-65
2022/10/19 08:08:37;;;;;;;9.55;7.00;;;;;;;17.19;93.11;101321.06;4956534;28;20050;-66
2022/10/19 08:11:10;;;;;;;8.93;6.80;;;;;;;17.25;92.13;101314.31;4968672;28;20042;-63
2022/10/19 08:13:38;;;;;;;7.72;6.75;;;;;;;17.24;93.46;101317.94;4965280;28;20027;-67
2022/10/19 08:16:05;;;;;;;13.45;7.00;;;;;;;17.43;90.89;101317.56;4960912;28;20030;-65
2022/10/19 08:18:31;;;;;;;8.98;6.05;;;;;;;17.61;89.27;101314.72;4961710;28;20026;-65
2022/10/19 08:20:56;;;;;;;8.77;6.40;;;;;;;17.68;90.42;101307.81;4964063;28;20394;-66
2022/10/19 08:23:22;;;;;;;12.20;6.65;;;;;;;17.71;89.91;101304.00;4960577;28;20062;-66
2022/10/19 08:25:49;;;;;;;8.50;6.38;;;;;;;17.72;90.37;101306.47;4963195;28;20090;-65
2022/10/19 08:28:15;;;;;;;14.60;7.05;;;;;;;17.63;91.02;101301.38;4955717;28;20690;-67
2022/10/19 08:30:40;;;;;;;8.82;6.70;;;;;;;17.57;91.70;101302.84;4962329;28;20113;-66
2022/10/19 08:33:07;;;;;;;10.13;7.72;;;;;;;17.79;90.58;101296.06;4968798;28;20141;-67
2022/10/19 08:35:33;;;;;;;7.57;6.30;;;;;;;17.99;89.45;101292.00;4964104;28;20406;-66
2022/10/19 08:37:59;;;;;;;13.77;6.70;;;;;;;18.02;89.57;101291.66;4954015;28;20043;-68
2022/10/19 08:40:29;;;;;;;10.70;7.18;;;;;;;18.09;88.39;101295.25;4959691;28;20039;-67
2022/10/19 08:43:17;;;;;;;7.38;6.43;;;;;;;18.14;87.30;101295.53;4956805;28;20419;-66
2022/10/19 08:45:57;;;;;;;10.07;6.82;;;;;;;18.23;86.69;101297.16;4974426;28;20523;-66
2022/10/19 08:48:32;;;;;;;10.40;6.18;;;;;;;18.36;86.53;101293.94;4954895;28;20089;-65
2022/10/19 08:50:59;;;;;;;13.00;5.88;;;;;;;18.26;88.67;101295.16;4950459;28;20039;-67
2022/10/19 08:53:56;;;;;;;9.30;6.35;;;;;;;18.33;87.45;101296.09;4956554;28;20045;-66
2022/10/19 08:56:33;;;;;;;7.78;5.95;;;;;;;18.27;87.86;101299.44;4961608;28;20043;-67
2022/10/19 08:59:19;;;;;;;9.60;6.03;;;;;;;18.44;86.33;101293.03;4954011;28;20126;-66
2022/10/19 09:01:56;;;;;;;8.48;6.07;;;;;;;18.47;86.78;101290.06;4959594;28;20438;-67
2022/10/19 09:04:31;;;;;;;7.50;5.18;;;;;;;18.54;86.51;101288.34;4968095;28;20129;-67
2022/10/19 09:07:44;;;;;;;7.47;5.57;;;;;;;18.56;86.21;101283.72;4967423;28;20517;-66
2022/10/19 09:10:13;;;;;;;8.23;5.68;;;;;;;18.69;86.94;101283.97;4964437;28;20039;-66
2022/10/19 09:12:47;;;;;;;13.18;6.05;;;;;;;19.01;85.14;101282.03;4950622;28;20038;-65
2022/10/19 09:15:49;;;;;;;6.07;5.47;;;;;;;19.03;82.36;101285.31;4963864;28;20039;-65
2022/10/19 09:18:28;;;;;;;10.38;5.68;;;;;;;19.07;85.22;101286.59;4968306;28;20042;-67
2022/10/19 09:21:05;;;;;;;9.65;6.22;;;;;;;19.17;83.82;101279.25;4967402;28;20042;-66
2022/10/19 09:23:44;;;;;;;10.27;5.10;;;;;;;19.22;81.96;101280.34;4964008;28;20038;-67
2022/10/19 09:26:24;;;;;;;6.95;5.40;;;;;;;19.32;81.42;101285.38;4967852;28;20365;-67
2022/10/19 09:29:11;;;;;;;7.95;5.15;;;;;;;19.31;80.94;101273.16;4952512;28;20031;-66
2022/10/19 09:31:38;;;;;;;9.35;5.63;;;;;;;19.46;81.92;101283.69;4953067;28;20031;-67
2022/10/19 09:34:20;;;;;;;12.45;6.80;;;;;;;19.50;81.13;101280.50;4965873;28;20109;-67
2022/10/19 09:36:51;;;;;;;7.55;5.90;;;;;;;19.56;80.86;101279.00;4967664;28;20453;-66
2022/10/19 09:39:18;;;;;;;6.05;4.72;;;;;;;19.45;82.46;101288.16;4952963;28;20031;-66
2022/10/19 09:41:50;;;;;;;6.28;5.65;;;;;;;19.57;80.10;101282.47;4966913;28;20385;-67
2022/10/19 09:44:17;;;;;;;7.80;5.28;;;;;;;19.73;79.87;101280.44;4952268;28;20055;-66
2022/10/19 09:47:00;;;;;;;7.43;5.40;;;;;;;19.72;79.17;101276.16;4952108;28;20034;-65
2022/10/19 09:50:02;;;;;;;8.05;4.75;;;;;;;19.63;78.99;101279.91;4952203;28;20407;-66
2022/10/19 09:52:34;;;;;;;7.13;5.10;;;;;;;19.72;79.46;101280.63;4960847;28;20043;-66
2022/10/19 09:55:14;;;;;;;5.03;4.53;;;;;;;19.73;79.03;101282.28;4978125;28;20035;-68
2022/10/19 09:57:44;;;;;;;7.07;4.85;;;;;;;19.58;80.45;101281.47;4949602;28;20039;-66
2022/10/19 10:00:21;;;;;;;7.00;5.22;;;;;;;19.62;79.78;101277.44;4955819;28;20688;-68
2022/10/19 10:02:54;;;;;;;6.40;5.05;;;;;;;19.63;80.40;101274.63;4967696;28;20039;-67
2022/10/19 10:05:32;;;;;;;6.80;4.65;;;;;;;19.64;79.90;101276.25;4951356;28;20039;-67
2022/10/19 10:07:58;;;;;;;7.80;5.93;;;;;;;19.52;82.40;101275.91;4952547;28;20051;-67
2022/10/19 10:10:28;;;;;;;7.00;5.28;;;;;;;19.54;81.97;101271.25;4966486;28;20598;-68
2022/10/19 10:12:53;;;;;;;10.07;5.40;;;;;;;19.60;82.49;101271.53;4962682;28;20105;-67
2022/10/19 10:15:40;;;;;;;9.23;5.28;;;;;;;19.78;79.51;101277.25;4953047;28;20681;-68
2022/10/19 10:18:11;;;;;;;10.07;5.07;;;;;;;19.84;81.10;101263.28;4960474;28;20046;-68
2022/10/19 10:20:39;;;;;;;5.57;4.88;;;;;;;19.97;80.13;101263.41;4955375;28;20087;-68
2022/10/19 10:23:05;;;;;;;7.00;5.38;;;;;;;20.11;79.59;101265.22;4966766;28;20023;-65
2022/10/19 10:25:33;;;;;;;8.25;5.18;;;;;;;20.10;80.55;101262.75;4965722;28;20169;-65
2022/10/19 10:28:19;;;;;;;8.07;5.05;;;;;;;20.19;78.65;101261.63;4979748;28;20509;-68
2022/10/19 10:30:45;;;;;;;;;;;;;;;20.09;74.58;101259.28;4958090;28;20043;-67
2022/10/19 10:33:16;;;;;;;10.30;5.55;;;;;;;20.37;77.70;101254.06;4957492;28;20388;-67
2022/10/19 10:35:48;;;;;;;7.10;4.93;;;;;;;20.45;76.38;101250.50;4954228;28;20031;-68
2022/10/19 10:38:24;;;;;;;10.60;5.00;;;;;;;20.43;76.06;101239.28;4959327;28;20121;-67
2022/10/19 10:41:01;;;;;;;5.75;5.00;;;;;;;20.48;74.81;101243.00;4959866;28;20037;-69
2022/10/19 10:43:32;;;;;;;6.05;4.60;;;;;;;20.49;75.30;101249.09;4952565;28;20039;-66
2022/10/19 10:46:07;;;;;;;8.60;4.70;;;;;;;20.71;72.53;101244.63;4957913;28;20047;-68
2022/10/19 10:48:45;;;;;;;7.72;4.88;;;;;;;20.79;71.23;101247.13;4954776;28;20061;-66
2022/10/19 10:51:29;;;;;;;8.15;4.88;;;;;;;20.72;72.64;101244.44;4957229;28;20151;-67
2022/10/19 10:54:13;;;;;;;6.43;4.47;;;;;;;20.74;71.82;101250.34;4952869;28;20050;-68
2022/10/19 10:56:42;;;;;;;6.28;5.15;;;;;;;20.62;74.49;101246.56;4956342;28;20035;-67
2022/10/19 10:59:16;;;;;;;8.52;4.28;;;;;;;20.65;72.90;101240.09;4954014;28;20039;-67
2022/10/19 11:02:00;;;;;;;10.80;4.23;;;;;;;20.78;71.17;101238.38;4961388;28;20143;-66
2022/10/19 11:04:34;;;;;;;7.30;3.78;;;;;;;20.82;73.11;101231.63;4958594;28;20325;-68
2022/10/19 11:07:15;;;;;;;5.18;4.07;;;;;;;20.60;73.93;101227.41;4966038;28;20117;-67
2022/10/19 11:09:45;;;;;;;6.57;4.85;;;;;;;20.61;74.18;101220.28;4954745;28;20645;-66
2022/10/19 11:12:14;;;;;;;7.85;4.28;;;;;;;20.75;74.23;101217.56;4964705;28;20025;-64
2022/10/19 11:15:20;;;;;;;14.57;8.93;;;;;;;20.56;77.99;101215.56;4955879;28;20077;-65
2022/10/19 11:17:54;;;;;;;11.63;4.78;;;;;;;20.39;76.82;101215.00;4963875;28;20148;-66
2022/10/19 11:20:22;;;;;;;8.93;4.78;;;;;;;20.53;75.12;101221.25;4968415;28;20035;-67
2022/10/19 11:23:13;;;;;;;6.07;3.95;;;;;;;20.64;74.53;101215.44;4964069;28;20540;-65
2022/10/19 11:25:51;;;;;;;10.95;4.53;;;;;;;20.68;75.42;101207.94;4954657;28;20051;-64